createdAt,value
2022-12-08T00:00:35.985Z,95899.75
2022-12-08T00:03:02.464Z,95899.38
2022-12-08T00:05:28.889Z,95893.13
2022-12-08T00:07:55.250Z,95896.28
2022-12-08T00:10:47.717Z,95891.59
2022-12-08T00:13:07.890Z,95881.00
2022-12-08T00:15:34.207Z,95886.13
2022-12-08T00:18:00.494Z,95886.13
2022-12-08T00:20:26.808Z,95887.72
2022-12-08T00:22:53.133Z,95878.28
2022-12-08T00:25:19.428Z,95878.66
2022-12-08T00:27:45.730Z,95870.31
2022-12-08T00:30:12.071Z,95862.47
2022-12-08T00:32:38.354Z,95864.84
2022-12-08T00:35:05.081Z,95859.34
2022-12-08T00:37:31.524Z,95866.44
2022-12-08T00:39:57.821Z,95864.78
2022-12-08T00:42:24.107Z,95858.47
2022-12-08T00:44:50.426Z,95860.41
2022-12-08T00:47:20.992Z,95861.19
2022-12-08T00:49:49.799Z,95860.00
2022-12-08T00:52:16.121Z,95855.28
2022-12-08T00:54:42.416Z,95853.69
2022-12-08T00:57:08.734Z,95856.44
2022-12-08T00:59:35.063Z,95851.31
2022-12-08T01:02:01.398Z,95856.06
2022-12-08T01:04:27.695Z,95854.84
2022-12-08T01:06:54.024Z,95858.44
2022-12-08T01:09:20.324Z,95848.19
2022-12-08T01:11:46.616Z,95855.69
2022-12-08T01:14:12.935Z,95861.94
2022-12-08T01:16:39.291Z,95862.75
2022-12-08T01:19:05.632Z,95850.53
2022-12-08T01:21:31.949Z,95853.66
2022-12-08T01:23:58.241Z,95848.59
2022-12-08T01:26:24.538Z,95853.69
2022-12-08T01:28:50.860Z,95844.38
2022-12-08T01:31:17.260Z,95852.94
2022-12-08T01:33:43.625Z,95836.00
2022-12-08T01:36:09.956Z,95838.56
2022-12-08T01:38:36.232Z,95839.66
2022-12-08T01:41:02.506Z,95831.44
2022-12-08T01:43:28.809Z,95839.72
2022-12-08T01:45:55.191Z,95838.56
2022-12-08T01:48:21.565Z,95828.69
2022-12-08T01:50:47.902Z,95829.13
2022-12-08T01:53:14.192Z,95825.50
2022-12-08T01:55:40.483Z,95825.50
2022-12-08T01:58:06.794Z,95827.03
2022-12-08T02:00:33.096Z,95833.31
2022-12-08T02:02:59.453Z,95822.69
2022-12-08T02:05:25.873Z,95820.72
2022-12-08T02:07:52.182Z,95827.78
2022-12-08T02:10:18.546Z,95819.94
2022-12-08T02:12:44.853Z,95812.88
2022-12-08T02:15:11.145Z,95811.63
2022-12-08T02:17:37.446Z,95803.31
2022-12-08T02:20:04.140Z,95802.25
2022-12-08T02:22:30.618Z,95800.19
2022-12-08T02:24:56.919Z,95796.66
2022-12-08T02:27:23.255Z,95804.09
2022-12-08T02:29:49.553Z,95800.19
2022-12-08T02:32:15.853Z,95788.78
2022-12-08T02:34:42.197Z,95797.06
2022-12-08T02:37:08.493Z,95789.66
2022-12-08T02:39:34.780Z,95793.91
2022-12-08T02:42:01.167Z,95779.78
2022-12-08T02:44:27.473Z,95782.13
2022-12-08T02:46:53.763Z,95781.34
2022-12-08T02:49:20.095Z,95768.75
2022-12-08T02:51:46.395Z,95774.69
2022-12-08T02:54:12.691Z,95769.53
2022-12-08T02:56:39.030Z,95766.81
2022-12-08T02:59:05.339Z,95767.94
2022-12-08T03:01:31.770Z,95756.94
2022-12-08T03:03:58.114Z,95761.69
2022-12-08T03:06:24.422Z,95756.91
2022-12-08T03:08:50.720Z,95752.97
2022-12-08T03:11:17.047Z,95754.53
2022-12-08T03:13:43.332Z,95753.75
2022-12-08T03:16:09.788Z,95745.16
2022-12-08T03:18:36.198Z,95739.63
2022-12-08T03:21:02.490Z,95743.50
2022-12-08T03:23:28.790Z,95747.56
2022-12-08T03:25:55.142Z,95742.81
2022-12-08T03:28:21.444Z,95738.13
2022-12-08T03:30:47.841Z,95741.69
2022-12-08T03:33:14.201Z,95738.56
2022-12-08T03:35:40.509Z,95738.13
2022-12-08T03:38:06.799Z,95729.84
2022-12-08T03:40:33.120Z,95731.38
2022-12-08T03:42:59.414Z,95732.16
2022-12-08T03:45:25.705Z,95728.97
2022-12-08T03:47:52.080Z,95727.47
2022-12-08T03:50:18.382Z,95723.88
2022-12-08T03:52:44.703Z,95723.09
2022-12-08T03:55:11.020Z,95721.16
2022-12-08T03:57:37.314Z,95714.47
2022-12-08T04:00:03.940Z,95712.06
2022-12-08T04:02:30.611Z,95720.31
2022-12-08T04:04:56.965Z,95719.56
2022-12-08T04:07:23.259Z,95717.59
2022-12-08T04:09:49.584Z,95708.91
2022-12-08T04:12:15.881Z,95703.00
2022-12-08T04:14:42.176Z,95699.81
2022-12-08T04:17:08.509Z,95703.81
2022-12-08T04:19:34.808Z,95701.94
2022-12-08T04:22:01.102Z,95698.75
2022-12-08T04:24:27.444Z,95691.72
2022-12-08T04:26:53.757Z,95684.94
2022-12-08T04:29:20.063Z,95687.66
2022-12-08T04:31:46.430Z,95690.44
2022-12-08T04:34:12.785Z,95684.94
2022-12-08T04:36:39.117Z,95682.50
2022-12-08T04:39:05.432Z,95683.00
2022-12-08T04:41:31.732Z,95687.66
2022-12-08T04:43:58.026Z,95690.81
2022-12-08T04:46:24.427Z,95685.31
2022-12-08T04:48:50.785Z,95686.03
2022-12-08T04:51:17.114Z,95688.00
2022-12-08T04:53:46.460Z,95690.03
2022-12-08T04:56:13.328Z,95686.91
2022-12-08T04:58:39.633Z,95682.28
2022-12-08T05:01:05.980Z,95679.78
2022-12-08T05:03:32.329Z,95685.25
2022-12-08T05:05:59.406Z,95679.38
2022-12-08T05:08:26.846Z,95681.78
2022-12-08T05:10:53.485Z,95679.09
2022-12-08T05:13:19.818Z,95673.50
2022-12-08T05:15:46.150Z,95672.75
2022-12-08T05:18:12.441Z,95673.53
2022-12-08T05:20:38.749Z,95661.72
2022-12-08T05:23:05.069Z,95671.25
2022-12-08T05:25:31.372Z,95669.69
2022-12-08T05:28:17.746Z,95665.38
2022-12-08T05:30:43.937Z,95671.34
2022-12-08T05:33:10.213Z,95660.69
2022-12-08T05:35:36.502Z,95672.56
2022-12-08T05:38:02.821Z,95668.28
2022-12-08T05:40:29.093Z,95663.94
2022-12-08T05:42:55.379Z,95653.75
2022-12-08T05:45:21.702Z,95661.28
2022-12-08T05:47:48.031Z,95652.72
2022-12-08T05:50:14.331Z,95660.53
2022-12-08T05:52:40.655Z,95652.75
2022-12-08T05:55:06.957Z,95653.53
2022-12-08T05:57:33.256Z,95660.63
2022-12-08T06:02:26.127Z,95657.50
2022-12-08T06:04:52.477Z,95659.84
2022-12-08T06:07:18.801Z,95661.75
2022-12-08T06:09:45.100Z,95665.75
2022-12-08T06:12:11.401Z,95672.41
2022-12-08T06:14:37.810Z,95674.00
2022-12-08T06:17:04.184Z,95671.22
2022-12-08T06:19:30.527Z,95667.38
2022-12-08T06:21:56.849Z,95667.72
2022-12-08T06:24:23.156Z,95668.16
2022-12-08T06:26:49.452Z,95662.22
2022-12-08T06:29:15.783Z,95667.31
2022-12-08T06:31:42.108Z,95673.97
2022-12-08T06:34:08.422Z,95670.78
2022-12-08T06:36:34.745Z,95662.50
2022-12-08T06:39:01.028Z,95658.56
2022-12-08T06:41:27.304Z,95658.97
2022-12-08T06:43:53.615Z,95658.66
2022-12-08T06:46:21.489Z,95657.16
2022-12-08T06:48:47.824Z,95653.28
2022-12-08T06:51:14.142Z,95657.16
2022-12-08T06:53:40.427Z,95659.03
2022-12-08T06:56:06.791Z,95668.47
2022-12-08T06:58:33.103Z,95663.00
2022-12-08T07:00:59.469Z,95667.59
2022-12-08T07:03:25.808Z,95658.50
2022-12-08T07:05:52.166Z,95658.19
2022-12-08T07:08:18.531Z,95653.41
2022-12-08T07:10:44.868Z,95663.56
2022-12-08T07:13:11.202Z,95664.75
2022-12-08T07:15:37.503Z,95666.78
2022-12-08T07:18:03.798Z,95663.16
2022-12-08T07:20:30.121Z,95664.09
2022-12-08T07:22:56.428Z,95669.91
2022-12-08T07:25:22.723Z,95673.00
2022-12-08T07:27:49.044Z,95667.16
2022-12-08T07:30:15.336Z,95669.44
2022-12-08T07:32:41.636Z,95671.03
2022-12-08T07:35:07.963Z,95665.13
2022-12-08T07:37:34.258Z,95670.63
2022-12-08T07:40:00.585Z,95665.81
2022-12-08T07:42:26.913Z,95663.88
2022-12-08T07:44:53.235Z,95660.31
2022-12-08T07:47:19.531Z,95660.28
2022-12-08T07:49:45.876Z,95660.31
2022-12-08T07:52:12.171Z,95664.25
2022-12-08T07:54:38.461Z,95664.28
2022-12-08T07:57:04.780Z,95654.41
2022-12-08T07:59:31.079Z,95653.19
2022-12-08T08:02:22.388Z,95659.53
2022-12-08T08:04:43.709Z,95654.03
2022-12-08T08:07:10.027Z,95649.72
2022-12-08T08:09:36.328Z,95648.88
2022-12-08T08:12:29.495Z,95644.84
2022-12-08T08:14:48.960Z,95648.44
2022-12-08T08:17:15.389Z,95644.56
2022-12-08T08:19:41.756Z,95645.47
2022-12-08T08:22:08.049Z,95640.47
2022-12-08T08:24:34.360Z,95633.88
2022-12-08T08:27:00.659Z,95645.69
2022-12-08T08:29:26.951Z,95630.72
2022-12-08T08:31:53.276Z,95635.38
2022-12-08T08:34:19.566Z,95634.91
2022-12-08T08:36:45.875Z,95635.19
2022-12-08T08:39:12.222Z,95641.84
2022-12-08T08:41:38.538Z,95629.59
2022-12-08T08:44:04.903Z,95636.59
2022-12-08T08:46:31.314Z,95636.53
2022-12-08T08:48:57.664Z,95637.34
2022-12-08T08:51:23.969Z,95635.06
2022-12-08T08:53:50.291Z,95629.09
2022-12-08T08:56:16.580Z,95627.41
2022-12-08T08:58:42.879Z,95623.84
2022-12-08T09:03:00.488Z,95648.03
2022-12-08T09:08:03.003Z,95643.69
2022-12-08T09:10:29.488Z,95640.16
2022-12-08T09:12:55.868Z,95646.94
2022-12-08T09:15:22.488Z,95642.88
2022-12-08T09:17:48.849Z,95650.34
2022-12-08T09:20:15.203Z,95647.25
2022-12-08T09:22:41.569Z,95642.88
2022-12-08T09:25:08.616Z,95644.00
2022-12-08T09:27:35.021Z,95635.97
2022-12-08T09:30:01.710Z,95633.09
2022-12-08T09:32:28.164Z,95639.47
2022-12-08T09:34:54.532Z,95635.59
2022-12-08T09:37:20.875Z,95633.66
2022-12-08T09:39:47.241Z,95630.91
2022-12-08T09:42:13.587Z,95625.31
2022-12-08T09:44:39.958Z,95619.78
2022-12-08T09:47:06.347Z,95618.25
2022-12-08T09:49:32.870Z,95616.28
2022-12-08T09:51:59.246Z,95616.75
2022-12-08T09:54:25.631Z,95616.00
2022-12-08T09:56:51.995Z,95615.91
2022-12-08T09:59:18.379Z,95616.69
2022-12-08T10:01:44.783Z,95611.16
2022-12-08T10:04:11.181Z,95614.03
2022-12-08T10:06:37.615Z,95618.88
2022-12-08T10:09:03.951Z,95604.84
2022-12-08T10:11:30.357Z,95592.41
2022-12-08T10:13:56.741Z,95588.50
2022-12-08T10:16:29.328Z,95582.84
2022-12-08T10:18:56.299Z,95582.47
2022-12-08T10:21:22.722Z,95579.59
2022-12-08T10:23:49.063Z,95578.09
2022-12-08T10:26:15.428Z,95571.63
2022-12-08T10:28:45.193Z,95571.22
2022-12-08T10:31:12.135Z,95572.59
2022-12-08T10:33:38.597Z,95577.66
2022-12-08T10:36:05.127Z,95560.84
2022-12-08T10:38:31.485Z,95558.72
2022-12-08T10:40:57.958Z,95545.66
2022-12-08T10:43:24.339Z,95547.16
2022-12-08T10:45:50.769Z,95550.22
2022-12-08T10:48:17.171Z,95535.03
2022-12-08T10:50:43.490Z,95527.53
2022-12-08T10:53:09.825Z,95535.53
2022-12-08T10:55:36.360Z,95547.50
2022-12-08T10:58:02.715Z,95545.66
2022-12-08T11:00:29.146Z,95542.91
2022-12-08T11:02:55.840Z,95544.47
2022-12-08T11:05:22.323Z,95537.13
2022-12-08T11:07:48.717Z,95539.50
2022-12-08T11:10:15.182Z,95538.69
2022-12-08T11:12:41.503Z,95522.66
2022-12-08T11:15:07.855Z,95515.56
2022-12-08T11:17:34.224Z,95515.22
2022-12-08T11:20:00.542Z,95513.31
2022-12-08T11:22:26.970Z,95513.31
2022-12-08T11:24:53.366Z,95517.94
2022-12-08T11:27:19.680Z,95514.25
2022-12-08T11:29:46.001Z,95509.13
2022-12-08T11:32:12.404Z,95510.47
2022-12-08T11:34:38.880Z,95501.09
2022-12-08T11:37:08.018Z,95496.69
2022-12-08T11:39:34.412Z,95497.91
2022-12-08T11:42:00.796Z,95495.31
2022-12-08T11:44:27.191Z,95489.78
2022-12-08T11:46:53.571Z,95491.19
2022-12-08T11:49:19.928Z,95486.13
2022-12-08T11:51:46.279Z,95483.53
2022-12-08T11:54:12.627Z,95476.94
2022-12-08T11:56:38.993Z,95477.50
2022-12-08T11:59:05.323Z,95478.03
2022-12-08T12:01:31.685Z,95475.81
2022-12-08T12:03:58.006Z,95467.56
2022-12-08T12:06:46.372Z,95462.56
2022-12-08T12:09:10.757Z,95466.72
2022-12-08T12:11:37.100Z,95461.28
2022-12-08T12:14:03.436Z,95452.53
2022-12-08T12:16:29.906Z,95454.63
2022-12-08T12:18:56.286Z,95456.69
2022-12-08T12:21:24.034Z,95455.16
2022-12-08T12:23:50.512Z,95458.09
2022-12-08T12:26:17.058Z,95443.75
2022-12-08T12:28:43.421Z,95439.81
2022-12-08T12:31:09.943Z,95433.22
2022-12-08T12:33:36.379Z,95439.41
2022-12-08T12:36:05.770Z,95431.47
2022-12-08T12:38:32.186Z,95427.22
2022-12-08T12:40:58.540Z,95425.19
2022-12-08T12:43:24.883Z,95424.66
2022-12-08T12:45:51.479Z,95428.41
2022-12-08T12:48:17.912Z,95433.41
2022-12-08T12:50:44.265Z,95428.00
2022-12-08T12:53:13.870Z,95426.94
2022-12-08T12:55:40.394Z,95437.75
2022-12-08T12:58:06.742Z,95424.25
2022-12-08T13:00:33.209Z,95418.69
2022-12-08T13:02:59.647Z,95421.03
2022-12-08T13:05:26.115Z,95414.59
2022-12-08T13:07:52.555Z,95414.91
2022-12-08T13:10:19.104Z,95411.31
2022-12-08T13:12:45.506Z,95412.56
2022-12-08T13:15:11.865Z,95399.34
2022-12-08T13:17:38.219Z,95395.13
2022-12-08T13:20:04.977Z,95388.00
2022-12-08T13:22:31.658Z,95389.72
2022-12-08T13:24:58.057Z,95388.59
2022-12-08T13:27:24.424Z,95393.44
2022-12-08T13:30:01.365Z,95389.31
2022-12-08T13:32:54.983Z,95388.06
2022-12-08T13:35:20.278Z,95389.63
2022-12-08T13:37:54.339Z,95386.44
2022-12-08T13:40:21.071Z,95399.06
2022-12-08T13:42:47.499Z,95393.25
2022-12-08T13:46:04.365Z,95386.19
2022-12-08T13:48:23.416Z,95385.94
2022-12-08T13:59:05.717Z,95373.84
2022-12-08T14:01:32.106Z,95372.75
2022-12-08T14:04:33.757Z,95366.97
2022-12-08T14:06:44.833Z,95369.00
2022-12-08T14:09:11.494Z,95367.38
2022-12-08T14:11:38.009Z,95364.59
2022-12-08T14:14:04.358Z,95366.53
2022-12-08T14:16:30.805Z,95362.09
2022-12-08T14:18:57.182Z,95361.09
2022-12-08T14:21:23.614Z,95361.44
2022-12-08T14:23:49.980Z,95359.59
2022-12-08T14:26:16.451Z,95354.66
2022-12-08T14:28:45.055Z,95360.94
2022-12-08T14:31:11.838Z,95361.75
2022-12-08T14:33:38.211Z,95361.06
2022-12-08T14:36:04.627Z,95360.94
2022-12-08T14:38:31.102Z,95351.22
2022-12-08T14:40:57.469Z,95350.06
2022-12-08T14:43:23.822Z,95346.94
2022-12-08T14:45:50.165Z,95343.97
2022-12-08T14:48:16.516Z,95340.78
2022-12-08T14:50:42.931Z,95335.91
2022-12-08T14:53:09.287Z,95342.34
2022-12-08T14:55:35.650Z,95333.50
2022-12-08T14:58:02.055Z,95335.28
2022-12-08T15:00:28.420Z,95337.59
2022-12-08T15:02:54.756Z,95333.50
2022-12-08T15:05:21.218Z,95334.69
2022-12-08T15:07:47.662Z,95334.16
2022-12-08T15:10:14.088Z,95337.50
2022-12-08T15:12:40.477Z,95328.50
2022-12-08T15:15:06.857Z,95341.56
2022-12-08T15:17:33.192Z,95338.63
2022-12-08T15:19:59.583Z,95337.78
2022-12-08T15:22:25.969Z,95334.56
2022-12-08T15:24:52.329Z,95339.91
2022-12-08T15:27:18.756Z,95343.56
2022-12-08T15:29:45.097Z,95340.13
2022-12-08T15:32:11.499Z,95331.31
2022-12-08T15:34:37.860Z,95329.69
2022-12-08T15:37:04.213Z,95333.28
2022-12-08T15:39:30.584Z,95330.47
2022-12-08T15:41:57.008Z,95333.09
2022-12-08T15:44:23.416Z,95333.13
2022-12-08T15:46:49.846Z,95325.59
2022-12-08T15:49:16.280Z,95335.78
2022-12-08T15:51:42.693Z,95336.31
2022-12-08T15:54:09.036Z,95326.81
2022-12-08T15:56:45.308Z,95329.47
2022-12-08T15:59:21.778Z,95330.00
2022-12-08T16:01:48.325Z,95326.72
2022-12-08T16:04:59.692Z,95323.34
2022-12-08T16:09:47.470Z,95314.63
2022-12-08T16:12:13.953Z,95315.97
2022-12-08T16:15:47.049Z,95321.94
2022-12-08T16:17:26.740Z,95317.69
2022-12-08T16:19:53.170Z,95319.41
2022-12-08T16:25:22.271Z,95325.72
2022-12-08T16:30:35.798Z,95321.09
2022-12-08T16:33:02.201Z,95333.50
2022-12-08T16:35:28.603Z,95331.94
2022-12-08T16:37:55.075Z,95334.38
2022-12-08T16:40:21.486Z,95334.13
2022-12-08T16:42:47.902Z,95332.94
2022-12-08T16:45:14.343Z,95329.00
2022-12-08T16:47:40.719Z,95324.53
2022-12-08T16:50:07.081Z,95316.06
2022-12-08T16:52:33.457Z,95317.59
2022-12-08T16:54:59.851Z,95315.66
2022-12-08T16:57:26.241Z,95321.69
2022-12-08T16:59:52.598Z,95319.72
2022-12-08T17:02:18.990Z,95318.53
2022-12-08T17:04:45.509Z,95315.41
2022-12-08T17:07:11.931Z,95314.66
2022-12-08T17:09:38.274Z,95317.59
2022-12-08T17:12:04.644Z,95323.25
2022-12-08T17:14:31.042Z,95309.75
2022-12-08T17:16:57.469Z,95321.78
2022-12-08T17:19:23.907Z,95314.84
2022-12-08T17:21:50.304Z,95317.19
2022-12-08T17:24:21.789Z,95316.13
2022-12-08T17:26:48.502Z,95316.69
2022-12-08T17:29:14.935Z,95328.03
2022-12-08T17:31:41.339Z,95328.22
2022-12-08T17:34:09.250Z,95325.47
2022-12-08T17:36:35.664Z,95327.38
2022-12-08T17:39:01.978Z,95320.78
2022-12-08T17:41:28.310Z,95321.72
2022-12-08T17:43:54.704Z,95314.81
2022-12-08T17:46:21.358Z,95310.63
2022-12-08T17:48:49.453Z,95313.59
2022-12-08T17:51:18.137Z,95313.28
2022-12-08T17:53:44.492Z,95318.44
2022-12-08T17:56:13.615Z,95319.69
2022-12-08T17:58:40.042Z,95312.25
2022-12-08T18:01:06.429Z,95313.25
2022-12-08T18:03:32.788Z,95310.88
2022-12-08T18:05:59.185Z,95306.88
2022-12-08T18:08:25.602Z,95308.28
2022-12-08T18:10:51.945Z,95305.44
2022-12-08T18:13:18.346Z,95307.78
2022-12-08T18:15:44.731Z,95309.91
2022-12-08T18:18:11.133Z,95307.13
2022-12-08T18:20:37.532Z,95306.41
2022-12-08T18:23:03.885Z,95314.47
2022-12-08T18:25:30.227Z,95306.69
2022-12-08T18:27:56.638Z,95311.19
2022-12-08T18:30:23.009Z,95302.03
2022-12-08T18:32:54.180Z,95305.06
2022-12-08T18:35:23.524Z,95297.44
2022-12-08T18:37:49.920Z,95300.44
2022-12-08T18:40:16.286Z,95297.22
2022-12-08T18:42:42.677Z,95298.63
2022-12-08T18:45:11.395Z,95297.97
2022-12-08T18:47:37.762Z,95286.69
2022-12-08T18:50:04.588Z,95289.63
2022-12-08T18:52:32.487Z,95293.19
2022-12-08T18:55:06.459Z,95296.13
2022-12-08T18:57:35.972Z,95289.88
2022-12-08T19:00:02.502Z,95289.28
2022-12-08T19:02:31.285Z,95285.91
2022-12-08T19:04:57.681Z,95288.28
2022-12-08T19:07:24.070Z,95289.44
2022-12-08T19:09:50.440Z,95275.72
2022-12-08T19:12:16.821Z,95287.84
2022-12-08T19:14:43.209Z,95285.84
2022-12-08T19:17:09.556Z,95287.69
2022-12-08T19:19:35.956Z,95282.75
2022-12-08T19:22:02.368Z,95283.72
2022-12-08T19:24:28.760Z,95289.31
2022-12-08T19:26:55.135Z,95282.94
2022-12-08T19:29:21.494Z,95278.75
2022-12-08T19:31:47.969Z,95274.44
2022-12-08T19:34:14.435Z,95266.00
2022-12-08T19:36:40.777Z,95274.97
2022-12-08T19:39:07.145Z,95275.81
2022-12-08T19:41:33.575Z,95262.59
2022-12-08T19:43:59.939Z,95274.09
2022-12-08T19:46:26.428Z,95273.00
2022-12-08T19:48:52.869Z,95271.44
2022-12-08T19:51:19.236Z,95277.50
2022-12-08T19:53:47.838Z,95269.47
2022-12-08T19:56:17.082Z,95265.41
2022-12-08T19:58:43.631Z,95265.63
2022-12-08T20:01:11.445Z,95267.44
2022-12-08T20:03:39.619Z,95267.41
2022-12-08T20:06:06.187Z,95270.13
2022-12-08T20:08:32.633Z,95271.94
2022-12-08T20:10:59.126Z,95270.72
2022-12-08T20:13:25.482Z,95275.56
2022-12-08T20:15:51.877Z,95279.53
2022-12-08T20:18:18.350Z,95280.31
2022-12-08T20:20:44.734Z,95270.47
2022-12-08T20:23:11.116Z,95272.22
2022-12-08T20:25:37.733Z,95260.44
2022-12-08T20:28:04.083Z,95268.38
2022-12-08T20:30:30.484Z,95267.00
2022-12-08T20:32:56.912Z,95261.78
2022-12-08T20:35:23.280Z,95256.69
2022-12-08T20:37:49.645Z,95259.38
2022-12-08T20:40:16.022Z,95256.91
2022-12-08T20:42:42.387Z,95249.09
2022-12-08T20:45:09.139Z,95250.47
2022-12-08T20:47:35.812Z,95237.16
2022-12-08T20:50:02.278Z,95235.91
2022-12-08T20:52:28.796Z,95232.94
2022-12-08T20:54:55.217Z,95220.47
2022-12-08T20:57:21.817Z,95223.09
2022-12-08T20:59:48.334Z,95221.84
2022-12-08T21:02:14.944Z,95213.66
2022-12-08T21:04:41.432Z,95222.44
2022-12-08T21:07:08.048Z,95223.13
2022-12-08T21:09:34.566Z,95230.88
2022-12-08T21:12:01.358Z,95233.78
2022-12-08T21:14:27.909Z,95232.09
2022-12-08T21:16:54.631Z,95225.06
2022-12-08T21:19:21.772Z,95230.16
2022-12-08T21:21:48.247Z,95228.09
2022-12-08T21:24:14.743Z,95221.84
2022-12-08T21:26:41.091Z,95217.06
2022-12-08T21:29:07.467Z,95214.38
2022-12-08T21:31:34.113Z,95217.66
2022-12-08T21:34:00.598Z,95202.66
2022-12-08T21:36:27.161Z,95223.44
2022-12-08T21:38:53.713Z,95214.22
2022-12-08T21:41:20.168Z,95222.41
2022-12-08T21:43:46.625Z,95232.81
2022-12-08T21:46:13.330Z,95242.78
2022-12-08T21:48:39.813Z,95248.72
2022-12-08T21:51:06.486Z,95240.19
2022-12-08T21:53:33.003Z,95243.78
2022-12-08T21:55:59.503Z,95241.03
2022-12-08T21:58:25.944Z,95252.94
2022-12-08T22:00:52.485Z,95249.00
2022-12-08T22:03:19.020Z,95255.44
2022-12-08T22:05:45.713Z,95244.59
2022-12-08T22:08:13.916Z,95249.06
2022-12-08T22:10:40.600Z,95247.28
2022-12-08T22:13:07.239Z,95251.72
2022-12-08T22:15:33.856Z,95245.03
2022-12-08T22:18:00.369Z,95244.25
2022-12-08T22:20:27.056Z,95246.53
2022-12-08T22:22:53.532Z,95230.31
2022-12-08T22:25:19.950Z,95240.72
2022-12-08T22:27:46.324Z,95241.53
2022-12-08T22:30:13.220Z,95240.25
2022-12-08T22:32:40.042Z,95233.94
2022-12-08T22:35:06.575Z,95229.94
2022-12-08T22:37:33.194Z,95234.38
2022-12-08T22:39:59.777Z,95229.59
2022-12-08T22:42:26.137Z,95228.03
2022-12-08T22:44:52.504Z,95222.63
2022-12-08T22:47:18.842Z,95213.53
2022-12-08T22:49:45.224Z,95205.34
2022-12-08T22:52:11.885Z,95217.09
2022-12-08T22:54:38.430Z,95215.25
2022-12-08T22:57:04.782Z,95209.75
2022-12-08T22:59:31.415Z,95213.03
2022-12-08T23:01:57.777Z,95210.72
2022-12-08T23:04:24.464Z,95209.44
2022-12-08T23:06:51.170Z,95206.19
2022-12-08T23:09:17.610Z,95197.38
2022-12-08T23:11:44.209Z,95197.78
2022-12-08T23:14:10.844Z,95199.41
2022-12-08T23:16:37.424Z,95201.50
2022-12-08T23:19:04.182Z,95202.66
2022-12-08T23:21:30.716Z,95203.13
2022-12-08T23:23:57.235Z,95208.03
2022-12-08T23:26:23.820Z,95197.16
2022-12-08T23:28:50.266Z,95194.59
2022-12-08T23:31:16.918Z,95186.81
2022-12-08T23:33:43.632Z,95198.94
2022-12-08T23:36:10.084Z,95191.72
2022-12-08T23:38:36.430Z,95194.03
2022-12-08T23:41:02.950Z,95198.38
2022-12-08T23:43:29.493Z,95184.25
2022-12-08T23:45:56.024Z,95188.31
2022-12-08T23:48:22.458Z,95173.63
2022-12-08T23:50:49.091Z,95175.47
2022-12-08T23:53:15.634Z,95179.53
2022-12-08T23:55:42.072Z,95170.47
2022-12-08T23:58:08.699Z,95167.94
